createdAt,value
2019-04-07T00:02:33.130Z,98573.25
2019-04-07T00:05:13.723Z,98571.47
2019-04-07T00:07:47.238Z,98566.51
2019-04-07T00:10:27.150Z,98559.52
2019-04-07T00:13:03.045Z,98563.25
2019-04-07T00:15:38.987Z,98565.39
2019-04-07T00:18:14.966Z,98570.11
2019-04-07T00:20:50.810Z,98569.04
2019-04-07T00:23:26.704Z,98558.34
2019-04-07T00:26:02.824Z,98557.86
2019-04-07T00:28:38.679Z,98561.94
2019-04-07T00:31:15.667Z,98560.26
2019-04-07T00:33:51.654Z,98566.00
2019-04-07T00:36:27.891Z,98571.77
2019-04-07T00:39:05.952Z,98566.30
2019-04-07T00:41:41.849Z,98563.88
2019-04-07T00:44:17.692Z,98566.61
2019-04-07T00:46:54.043Z,98560.43
2019-04-07T00:49:29.922Z,98562.08
2019-04-07T00:52:07.419Z,98563.18
2019-04-07T00:54:43.482Z,98563.18
2019-04-07T00:57:19.874Z,98564.25
2019-04-07T00:59:56.116Z,98560.16
2019-04-07T01:02:32.285Z,98557.16
2019-04-07T01:05:09.112Z,98562.52
2019-04-07T01:07:45.215Z,98562.27
2019-04-07T01:10:21.643Z,98564.91
2019-04-07T01:12:57.627Z,98563.01
2019-04-07T01:15:33.972Z,98563.98
2019-04-07T01:18:10.008Z,98565.47
2019-04-07T01:20:46.723Z,98571.91
2019-04-07T01:23:23.495Z,98561.43
2019-04-07T01:25:59.444Z,98559.95
2019-04-07T01:28:35.424Z,98559.23
2019-04-07T01:31:11.360Z,98556.03
2019-04-07T01:33:47.786Z,98554.34
2019-04-07T01:36:23.813Z,98556.84
2019-04-07T01:39:00.026Z,98556.29
2019-04-07T01:41:37.438Z,98560.36
2019-04-07T01:44:18.055Z,98553.27
2019-04-07T01:46:55.980Z,98551.80
2019-04-07T01:49:33.855Z,98552.86
2019-04-07T01:52:26.452Z,98546.83
2019-04-07T01:55:12.977Z,98545.72
2019-04-07T01:57:56.586Z,98548.81
2019-04-07T02:00:40.395Z,98541.09
2019-04-07T02:03:20.597Z,98549.35
2019-04-07T02:06:01.634Z,98543.16
2019-04-07T02:08:40.391Z,98547.09
2019-04-07T02:11:24.039Z,98545.15
2019-04-07T02:14:03.771Z,98546.69
2019-04-07T02:16:41.165Z,98546.16
2019-04-07T02:19:21.630Z,98540.86
2019-04-07T02:22:04.952Z,98550.91
2019-04-07T02:24:42.342Z,98544.50
2019-04-07T02:27:25.685Z,98551.73
2019-04-07T02:30:19.795Z,98552.64
2019-04-07T02:33:06.461Z,98558.05
2019-04-07T02:35:47.026Z,98555.43
2019-04-07T02:38:24.515Z,98561.63
2019-04-07T02:41:01.919Z,98563.45
2019-04-07T02:43:51.714Z,98575.26
2019-04-07T02:46:40.964Z,98578.78
2019-04-07T02:49:21.662Z,98584.84
2019-04-07T02:52:14.685Z,98590.91
2019-04-07T02:55:01.088Z,98591.95
2019-04-07T02:57:42.188Z,98589.30
2019-04-07T03:00:20.467Z,98592.23
2019-04-07T03:03:01.639Z,98590.50
2019-04-07T03:05:45.586Z,98596.16
2019-04-07T03:08:32.304Z,98594.67
2019-04-07T03:11:29.067Z,98591.25
2019-04-07T03:14:09.530Z,98586.03
2019-04-07T03:16:52.819Z,98584.80
2019-04-07T03:19:33.381Z,98583.38
2019-04-07T03:22:13.462Z,98586.33
2019-04-07T03:25:03.699Z,98581.72
2019-04-07T03:27:56.014Z,98579.07
2019-04-07T03:30:40.906Z,98579.91
2019-04-07T03:33:21.751Z,98580.88
2019-04-07T03:36:01.961Z,98583.88
2019-04-07T03:38:42.919Z,98581.23
2019-04-07T03:41:20.311Z,98580.48
2019-04-07T03:43:59.284Z,98581.99
2019-04-07T03:46:37.491Z,98586.16
2019-04-07T03:49:20.908Z,98583.63
2019-04-07T03:52:07.153Z,98581.27
2019-04-07T03:55:01.332Z,98585.44
2019-04-07T03:57:46.357Z,98593.66
2019-04-07T04:01:11.061Z,98591.30
2019-04-07T04:03:57.167Z,98587.45
2019-04-07T04:06:47.234Z,98587.92
2019-04-07T04:09:42.523Z,98587.52
2019-04-07T04:12:21.125Z,98595.45
2019-04-07T04:15:00.204Z,98596.20
2019-04-07T04:17:37.029Z,98595.45
2019-04-07T04:20:14.762Z,98589.75
2019-04-07T04:22:50.836Z,98592.23
2019-04-07T04:25:27.430Z,98594.20
2019-04-07T04:28:04.738Z,98593.28
2019-04-07T04:30:41.972Z,98593.08
2019-04-07T04:33:18.114Z,98596.36
2019-04-07T04:35:54.009Z,98595.76
2019-04-07T04:38:30.056Z,98597.92
2019-04-07T04:41:06.866Z,98597.65
2019-04-07T04:43:42.733Z,98594.33
2019-04-07T04:46:18.710Z,98593.28
2019-04-07T04:48:55.433Z,98598.97
2019-04-07T04:51:36.317Z,98597.53
2019-04-07T04:54:08.835Z,98594.98
2019-04-07T04:56:44.888Z,98604.25
2019-04-07T04:59:21.651Z,98596.46
2019-04-07T05:01:57.535Z,98604.80
2019-04-07T05:04:34.090Z,98614.61
2019-04-07T05:07:10.179Z,98605.70
2019-04-07T05:09:51.204Z,98605.69
2019-04-07T05:12:24.352Z,98613.63
2019-04-07T05:15:00.381Z,98617.57
2019-04-07T05:17:36.899Z,98618.75
2019-04-07T05:20:13.542Z,98612.38
2019-04-07T05:22:49.516Z,98621.61
2019-04-07T05:25:25.262Z,98620.25
2019-04-07T05:28:01.207Z,98623.02
2019-04-07T05:30:37.944Z,98631.11
2019-04-07T05:33:14.130Z,98641.72
2019-04-07T05:35:50.343Z,98644.81
2019-04-07T05:38:26.515Z,98650.83
2019-04-07T05:41:02.964Z,98646.59
2019-04-07T05:43:38.748Z,98653.86
2019-04-07T05:46:14.989Z,98647.22
2019-04-07T05:48:52.611Z,98649.34
2019-04-07T05:51:30.096Z,98652.39
2019-04-07T05:54:07.153Z,98652.53
2019-04-07T05:56:43.725Z,98648.91
2019-04-07T05:59:19.915Z,98649.27
2019-04-07T06:02:01.253Z,98651.69
2019-04-07T06:04:33.844Z,98655.02
2019-04-07T06:07:10.232Z,98652.37
2019-04-07T06:09:50.082Z,98650.75
2019-04-07T06:12:23.706Z,98653.86
2019-04-07T06:14:59.633Z,98647.86
2019-04-07T06:17:35.799Z,98652.94
2019-04-07T06:20:15.034Z,98645.94
2019-04-07T06:22:52.704Z,98652.02
2019-04-07T06:25:27.334Z,98653.02
2019-04-07T06:28:03.357Z,98653.14
2019-04-07T06:30:39.524Z,98650.89
2019-04-07T06:33:15.624Z,98657.78
2019-04-07T06:35:54.948Z,98652.29
2019-04-07T06:38:34.218Z,98653.15
2019-04-07T06:41:08.212Z,98651.25
2019-04-07T06:43:44.167Z,98642.00
2019-04-07T06:46:27.599Z,98653.16
2019-04-07T06:49:18.444Z,98658.38
2019-04-07T06:51:55.780Z,98654.40
2019-04-07T06:54:50.075Z,98664.38
2019-04-07T06:57:35.146Z,98656.19
2019-04-07T07:00:25.711Z,98655.48
2019-04-07T07:03:07.531Z,98667.23
2019-04-07T07:05:51.501Z,98666.61
2019-04-07T07:08:47.454Z,98662.84
2019-04-07T07:11:44.100Z,98661.84
2019-04-07T07:14:32.932Z,98664.48
2019-04-07T07:17:07.499Z,98665.06
2019-04-07T07:20:03.588Z,98663.66
2019-04-07T07:22:47.897Z,98664.88
2019-04-07T07:25:23.739Z,98662.77
2019-04-07T07:27:59.996Z,98668.90
2019-04-07T07:30:35.965Z,98661.70
2019-04-07T07:33:13.588Z,98661.70
2019-04-07T07:35:49.486Z,98668.63
2019-04-07T07:38:27.006Z,98665.92
2019-04-07T07:41:04.477Z,98669.83
2019-04-07T07:43:41.422Z,98670.06
2019-04-07T07:46:20.565Z,98671.99
2019-04-07T07:48:58.788Z,98673.50
2019-04-07T07:51:32.482Z,98679.52
2019-04-07T07:54:09.947Z,98673.11
2019-04-07T07:56:49.391Z,98678.67
2019-04-07T07:59:24.129Z,98677.02
2019-04-07T08:02:00.041Z,98676.13
2019-04-07T08:04:36.575Z,98677.43
2019-04-07T08:07:15.258Z,98674.16
2019-04-07T08:09:53.791Z,98684.00
2019-04-07T08:12:28.130Z,98681.70
2019-04-07T08:15:04.958Z,98674.46
2019-04-07T08:17:40.987Z,98679.92
2019-04-07T08:20:18.594Z,98677.11
2019-04-07T08:22:54.958Z,98678.95
2019-04-07T08:25:31.013Z,98682.45
2019-04-07T08:28:08.192Z,98681.03
2019-04-07T08:30:47.501Z,98683.93
2019-04-07T08:33:22.580Z,98681.66
2019-04-07T08:35:58.938Z,98679.14
2019-04-07T08:38:35.396Z,98685.05
2019-04-07T08:41:12.465Z,98681.81
2019-04-07T08:43:53.222Z,98688.93
2019-04-07T08:46:30.666Z,98687.23
2019-04-07T08:49:05.503Z,98686.42
2019-04-07T08:51:41.741Z,98681.16
2019-04-07T08:54:18.436Z,98677.91
2019-04-07T08:56:56.895Z,98676.62
2019-04-07T08:59:32.486Z,98678.36
2019-04-07T09:02:08.672Z,98676.95
2019-04-07T09:04:49.757Z,98679.55
2019-04-07T09:07:23.629Z,98677.09
2019-04-07T09:09:59.884Z,98681.88
2019-04-07T09:12:36.066Z,98674.96
2019-04-07T09:15:13.719Z,98672.41
2019-04-07T09:17:51.157Z,98676.19
2019-04-07T09:20:29.219Z,98678.50
2019-04-07T09:23:07.111Z,98674.22
2019-04-07T09:25:44.823Z,98677.64
2019-04-07T09:28:38.907Z,98670.78
2019-04-07T09:31:19.644Z,98670.80
2019-04-07T09:34:00.121Z,98675.55
2019-04-07T09:36:40.740Z,98672.53
2019-04-07T09:39:33.995Z,98671.49
2019-04-07T09:42:14.897Z,98671.72
2019-04-07T09:45:10.775Z,98667.52
2019-04-07T09:47:48.684Z,98680.92
2019-04-07T09:50:35.374Z,98673.01
2019-04-07T09:53:29.078Z,98668.31
2019-04-07T09:56:08.869Z,98674.37
2019-04-07T09:58:58.242Z,98676.91
2019-04-07T10:01:47.592Z,98680.92
2019-04-07T10:04:25.648Z,98675.63
2019-04-07T10:07:03.656Z,98677.30
2019-04-07T10:09:50.207Z,98674.82
2019-04-07T10:12:29.932Z,98674.74
2019-04-07T10:15:23.280Z,98669.86
2019-04-07T10:18:06.724Z,98672.03
2019-04-07T10:20:59.755Z,98675.05
2019-04-07T10:23:37.538Z,98670.11
2019-04-07T10:26:21.002Z,98668.27
2019-04-07T10:29:04.608Z,98669.04
2019-04-07T10:31:49.326Z,98670.30
2019-04-07T10:34:37.483Z,98673.55
2019-04-07T10:37:24.410Z,98674.52
2019-04-07T10:40:03.148Z,98663.95
2019-04-07T10:42:50.194Z,98666.91
2019-04-07T10:45:45.964Z,98668.95
2019-04-07T10:48:35.435Z,98665.31
2019-04-07T10:51:29.321Z,98661.91
2019-04-07T10:54:22.186Z,98668.42
2019-04-07T10:56:59.889Z,98664.95
2019-04-07T10:59:40.427Z,98665.77
2019-04-07T11:02:27.546Z,98665.83
2019-04-07T11:05:10.710Z,98665.19
2019-04-07T11:07:48.305Z,98658.23
2019-04-07T11:10:39.367Z,98670.16
2019-04-07T11:13:20.926Z,98671.11
2019-04-07T11:16:03.894Z,98664.29
2019-04-07T11:18:47.244Z,98661.09
2019-04-07T11:21:33.865Z,98663.21
2019-04-07T11:24:14.167Z,98658.95
2019-04-07T11:27:03.515Z,98665.72
2019-04-07T11:29:43.867Z,98664.08
2019-04-07T11:32:30.476Z,98661.09
2019-04-07T11:35:17.624Z,98660.07
2019-04-07T11:38:06.882Z,98663.09
2019-04-07T11:41:00.435Z,98663.56
2019-04-07T11:43:54.551Z,98658.34
2019-04-07T11:46:31.964Z,98662.02
2019-04-07T11:49:16.055Z,98663.83
2019-04-07T11:51:53.607Z,98662.13
2019-04-07T11:54:47.881Z,98667.35
2019-04-07T11:57:31.233Z,98664.48
2019-04-07T12:00:22.597Z,98670.19
2019-04-07T12:03:00.831Z,98667.17
2019-04-07T12:05:38.137Z,98666.66
2019-04-07T12:08:18.608Z,98661.10
2019-04-07T12:11:07.856Z,98666.66
2019-04-07T12:14:01.202Z,98660.66
2019-04-07T12:16:39.098Z,98664.08
2019-04-07T12:19:26.156Z,98658.78
2019-04-07T12:22:14.116Z,98653.95
2019-04-07T12:25:07.860Z,98650.13
2019-04-07T12:27:46.231Z,98645.09
2019-04-07T12:30:28.405Z,98639.22
2019-04-07T12:33:09.885Z,98633.53
2019-04-07T12:36:03.501Z,98629.65
2019-04-07T12:38:43.245Z,98640.56
2019-04-07T12:41:22.101Z,98637.00
2019-04-07T12:44:08.035Z,98631.98
2019-04-07T12:46:48.403Z,98623.25
2019-04-07T12:49:25.869Z,98618.05
2019-04-07T12:52:18.159Z,98619.43
2019-04-07T12:55:15.392Z,98622.14
2019-04-07T12:57:50.585Z,98617.09
2019-04-07T13:00:52.873Z,98615.07
2019-04-07T13:03:32.209Z,98616.75
2019-04-07T13:06:25.567Z,98617.43
2019-04-07T13:09:15.114Z,98610.20
2019-04-07T13:11:55.904Z,98610.69
2019-04-07T13:14:51.238Z,98606.84
2019-04-07T13:17:37.568Z,98606.15
2019-04-07T13:20:18.081Z,98601.78
2019-04-07T13:23:09.773Z,98601.09
2019-04-07T13:25:47.410Z,98602.95
2019-04-07T13:28:27.875Z,98596.07
2019-04-07T13:31:11.314Z,98595.40
2019-04-07T13:34:04.298Z,98589.84
2019-04-07T13:36:45.153Z,98592.83
2019-04-07T13:39:35.937Z,98594.14
2019-04-07T13:42:20.797Z,98594.30
2019-04-07T13:45:04.526Z,98598.66
2019-04-07T13:48:00.324Z,98596.00
2019-04-07T13:50:38.261Z,98592.66
2019-04-07T13:53:26.334Z,98585.63
2019-04-07T13:56:19.456Z,98585.45
2019-04-07T13:59:05.979Z,98591.16
2019-04-07T14:01:45.115Z,98585.95
2019-04-07T14:04:22.641Z,98593.34
2019-04-07T14:07:00.013Z,98587.61
2019-04-07T14:09:37.558Z,98586.27
2019-04-07T14:12:15.476Z,98584.25
2019-04-07T14:15:09.372Z,98587.13
2019-04-07T14:17:47.023Z,98581.58
2019-04-07T14:20:33.523Z,98584.27
2019-04-07T14:23:11.044Z,98581.59
2019-04-07T14:25:52.944Z,98588.65
2019-04-07T14:28:29.806Z,98592.55
2019-04-07T14:31:07.587Z,98584.45
2019-04-07T14:33:45.018Z,98590.15
2019-04-07T14:36:28.443Z,98581.72
2019-04-07T14:39:23.116Z,98590.33
2019-04-07T14:42:17.614Z,98582.22
2019-04-07T14:44:55.560Z,98587.62
2019-04-07T14:47:36.074Z,98588.50
2019-04-07T14:50:32.090Z,98581.59
2019-04-07T14:53:09.761Z,98586.31
2019-04-07T14:55:53.428Z,98588.50
2019-04-07T14:58:36.986Z,98596.38
2019-04-07T15:01:30.743Z,98584.75
2019-04-07T15:04:06.695Z,98587.45
2019-04-07T15:06:42.541Z,98582.72
2019-04-07T15:09:23.986Z,98578.89
2019-04-07T15:12:02.784Z,98575.03
2019-04-07T15:14:38.927Z,98578.38
2019-04-07T15:17:14.726Z,98574.84
2019-04-07T15:19:51.332Z,98569.61
2019-04-07T15:22:29.950Z,98567.88
2019-04-07T15:25:07.188Z,98576.97
2019-04-07T15:27:42.635Z,98575.78
2019-04-07T15:30:18.515Z,98574.94
2019-04-07T15:32:57.851Z,98582.03
2019-04-07T15:35:31.757Z,98579.68
2019-04-07T15:38:07.599Z,98578.22
2019-04-07T15:40:44.012Z,98580.73
2019-04-07T15:43:21.152Z,98579.20
2019-04-07T15:45:57.202Z,98586.59
2019-04-07T15:48:34.011Z,98584.27
2019-04-07T15:51:09.816Z,98580.24
2019-04-07T15:53:50.353Z,98583.94
2019-04-07T15:56:23.968Z,98584.95
2019-04-07T15:59:02.005Z,98588.31
2019-04-07T16:01:39.401Z,98591.01
2019-04-07T16:04:15.998Z,98590.00
2019-04-07T16:06:52.621Z,98594.22
2019-04-07T16:09:36.457Z,98594.05
2019-04-07T16:12:06.549Z,98600.93
2019-04-07T16:14:46.484Z,98588.96
2019-04-07T16:17:21.116Z,98596.18
2019-04-07T16:19:57.015Z,98594.65
2019-04-07T16:22:33.554Z,98594.30
2019-04-07T16:25:11.254Z,98593.98
2019-04-07T16:27:47.647Z,98602.52
2019-04-07T16:30:23.654Z,98605.37
2019-04-07T16:33:01.886Z,98607.20
2019-04-07T16:35:36.902Z,98605.15
2019-04-07T16:38:13.006Z,98606.80
2019-04-07T16:40:50.192Z,98603.26
2019-04-07T16:43:26.237Z,98606.58
2019-04-07T16:46:02.084Z,98608.40
2019-04-07T16:48:40.139Z,98608.38
2019-04-07T16:51:15.908Z,98609.29
2019-04-07T16:53:54.231Z,98612.59
2019-04-07T16:56:30.119Z,98610.38
2019-04-07T16:59:08.454Z,98618.36
2019-04-07T17:01:43.603Z,98614.79
2019-04-07T17:04:20.134Z,98619.25
2019-04-07T17:07:03.296Z,98613.82
2019-04-07T17:09:35.424Z,98615.43
2019-04-07T17:12:12.383Z,98609.66
2019-04-07T17:14:49.135Z,98609.66
2019-04-07T17:17:26.014Z,98609.66
2019-04-07T17:20:01.839Z,98612.91
2019-04-07T17:22:37.680Z,98617.50
2019-04-07T17:25:14.209Z,98620.61
2019-04-07T17:27:50.828Z,98612.56
2019-04-07T17:30:28.080Z,98625.35
2019-04-07T17:33:05.209Z,98616.96
2019-04-07T17:35:44.240Z,98628.13
2019-04-07T17:38:21.438Z,98630.70
2019-04-07T17:40:57.962Z,98634.95
2019-04-07T17:43:51.391Z,98635.19
2019-04-07T17:46:26.450Z,98633.24
2019-04-07T17:49:04.523Z,98637.86
2019-04-07T17:51:42.199Z,98645.25
2019-04-07T17:54:23.005Z,98648.48
2019-04-07T17:57:12.500Z,98646.03
2019-04-07T17:59:50.399Z,98647.80
2019-04-07T18:02:34.925Z,98652.19
2019-04-07T18:05:15.250Z,98648.76
2019-04-07T18:07:52.701Z,98655.50
2019-04-07T18:10:30.681Z,98660.22
2019-04-07T18:13:22.685Z,98660.88
2019-04-07T18:16:06.325Z,98661.72
2019-04-07T18:18:44.340Z,98666.30
2019-04-07T18:21:39.722Z,98671.77
2019-04-07T18:24:18.168Z,98672.69
2019-04-07T18:26:55.523Z,98678.78
2019-04-07T18:29:36.351Z,98683.70
2019-04-07T18:32:14.496Z,98679.27
2019-04-07T18:34:52.756Z,98677.94
2019-04-07T18:37:31.138Z,98680.92
2019-04-07T18:40:27.373Z,98688.16
2019-04-07T18:43:20.227Z,98693.00
2019-04-07T18:46:01.134Z,98689.58
2019-04-07T18:48:50.391Z,98684.80
2019-04-07T18:51:47.065Z,98694.98
2019-04-07T18:54:22.903Z,98695.64
2019-04-07T18:57:10.488Z,98690.73
2019-04-07T18:59:59.420Z,98689.30
2019-04-07T19:02:34.340Z,98690.30
2019-04-07T19:05:23.753Z,98694.73
2019-04-07T19:08:19.204Z,98695.46
2019-04-07T19:11:12.318Z,98698.78
2019-04-07T19:14:14.264Z,98698.09
2019-04-07T19:16:49.965Z,98701.03
2019-04-07T19:19:42.022Z,98698.63
2019-04-07T19:22:28.326Z,98694.78
2019-04-07T19:25:12.732Z,98692.64
2019-04-07T19:28:04.473Z,98689.40
2019-04-07T19:30:51.171Z,98700.24
2019-04-07T19:33:35.603Z,98694.41
2019-04-07T19:36:31.183Z,98699.97
2019-04-07T19:39:11.652Z,98699.89
2019-04-07T19:41:51.795Z,98695.77
2019-04-07T19:44:39.325Z,98697.23
2019-04-07T19:47:20.628Z,98707.69
2019-04-07T19:50:05.159Z,98698.88
2019-04-07T19:52:51.467Z,98703.60
2019-04-07T19:55:38.817Z,98702.16
2019-04-07T19:58:38.082Z,98703.27
2019-04-07T20:01:20.758Z,98707.98
2019-04-07T20:04:04.132Z,98711.98
2019-04-07T20:06:59.548Z,98708.70
2019-04-07T20:09:45.174Z,98707.77
2019-04-07T20:12:22.117Z,98714.29
2019-04-07T20:15:06.601Z,98704.98
2019-04-07T20:17:55.068Z,98715.00
2019-04-07T20:20:49.310Z,98707.89
2019-04-07T20:23:35.910Z,98708.73
2019-04-07T20:26:22.145Z,98710.91
2019-04-07T20:29:04.970Z,98711.64
2019-04-07T20:31:47.233Z,98715.01
2019-04-07T20:34:25.277Z,98719.84
2019-04-07T20:37:02.831Z,98718.16
2019-04-07T20:39:58.040Z,98713.33
2019-04-07T20:42:36.675Z,98711.50
2019-04-07T20:45:18.589Z,98715.01
2019-04-07T20:48:12.099Z,98714.88
2019-04-07T20:51:05.901Z,98706.53
2019-04-07T20:53:43.387Z,98711.72
2019-04-07T20:56:37.287Z,98711.82
2019-04-07T20:59:18.270Z,98710.95
2019-04-07T21:02:07.089Z,98714.93
2019-04-07T21:04:41.731Z,98715.27
2019-04-07T21:07:31.366Z,98714.63
2019-04-07T21:10:18.992Z,98719.31
2019-04-07T21:13:00.258Z,98717.62
2019-04-07T21:15:43.538Z,98710.09
2019-04-07T21:18:24.097Z,98717.56
2019-04-07T21:21:01.699Z,98725.03
2019-04-07T21:23:39.332Z,98725.60
2019-04-07T21:26:17.555Z,98721.85
2019-04-07T21:28:58.831Z,98720.87
2019-04-07T21:31:39.740Z,98719.09
2019-04-07T21:34:17.085Z,98719.11
2019-04-07T21:36:54.630Z,98717.04
2019-04-07T21:39:48.549Z,98713.89
2019-04-07T21:42:35.860Z,98721.27
2019-04-07T21:45:32.382Z,98721.62
2019-04-07T21:48:05.383Z,98720.69
2019-04-07T21:50:48.784Z,98715.88
2019-04-07T21:53:29.125Z,98720.86
2019-04-07T21:56:10.536Z,98720.48
2019-04-07T21:59:04.328Z,98715.06
2019-04-07T22:01:59.285Z,98720.37
2019-04-07T22:04:55.683Z,98720.94
2019-04-07T22:07:35.512Z,98728.40
2019-04-07T22:10:13.713Z,98723.52
2019-04-07T22:12:49.815Z,98720.58
2019-04-07T22:15:26.692Z,98722.31
2019-04-07T22:18:07.504Z,98719.87
2019-04-07T22:20:40.501Z,98723.34
2019-04-07T22:23:16.687Z,98717.28
2019-04-07T22:25:53.926Z,98715.11
2019-04-07T22:28:30.358Z,98711.06
2019-04-07T22:31:08.890Z,98724.22
2019-04-07T22:33:45.096Z,98714.92
2019-04-07T22:36:20.886Z,98716.00
2019-04-07T22:38:59.740Z,98704.38
2019-04-07T22:41:34.390Z,98718.95
2019-04-07T22:44:11.273Z,98712.95
2019-04-07T22:46:49.525Z,98714.24
2019-04-07T22:49:28.537Z,98709.34
2019-04-07T22:52:03.412Z,98716.79
2019-04-07T22:54:40.663Z,98712.77
2019-04-07T22:57:17.659Z,98722.28
2019-04-07T22:59:54.425Z,98721.76
2019-04-07T23:02:30.436Z,98724.11
2019-04-07T23:05:07.216Z,98721.33
2019-04-07T23:07:43.822Z,98718.63
2019-04-07T23:10:19.806Z,98719.69
2019-04-07T23:12:55.809Z,98728.17
2019-04-07T23:15:41.027Z,98719.52
2019-04-07T23:18:09.256Z,98718.36
2019-04-07T23:20:45.953Z,98725.75
2019-04-07T23:23:21.833Z,98728.88
2019-04-07T23:25:57.834Z,98728.88
2019-04-07T23:28:34.729Z,98723.77
2019-04-07T23:31:11.652Z,98726.54
2019-04-07T23:33:47.554Z,98732.16
2019-04-07T23:36:24.237Z,98729.19
2019-04-07T23:39:00.291Z,98729.72
2019-04-07T23:41:37.102Z,98728.18
2019-04-07T23:44:13.147Z,98728.76
2019-04-07T23:46:48.991Z,98733.66
2019-04-07T23:49:25.909Z,98733.26
2019-04-07T23:52:02.730Z,98734.32
2019-04-07T23:54:39.718Z,98728.27
2019-04-07T23:57:15.661Z,98730.30
2019-04-07T23:59:51.511Z,98727.73
